Time;durP1;ratioP1;P1;durP2;ratioP2;P2;SDS_P1;SDS_P2;PMS_P1;PMS_P2;Temp;Humidity;BMP_temperature;BMP_pressure;BME280_temperature;BME280_humidity;BME280_pressure;Samples;Min_cycle;Max_cycle;Signal;HPM_P1;HPM_P2
2022/05/04 00:00:50;;;;;;;28.85;18.13;;;;;;;4.17;86.71;97760.72;10335903;28;20104;-59
2022/05/04 00:05:49;;;;;;;34.30;19.10;;;;;;;4.23;86.94;97781.44;10335509;28;20037;-58
2022/05/04 00:10:48;;;;;;;25.85;15.23;;;;;;;4.10;87.42;97784.53;10335100;28;20065;-58
2022/05/04 00:15:47;;;;;;;26.27;15.20;;;;;;;4.02;87.18;97788.63;10334847;28;20064;-58
2022/05/04 00:20:46;;;;;;;23.83;14.93;;;;;;;3.98;86.85;97784.22;10334899;28;20025;-59
2022/05/04 00:25:45;;;;;;;23.50;13.68;;;;;;;3.95;86.56;97785.00;10334258;28;20413;-59
2022/05/04 00:30:44;;;;;;;22.95;14.38;;;;;;;3.94;86.70;97787.53;10334615;28;20073;-58
2022/05/04 00:35:43;;;;;;;;;;;;;;;3.90;86.48;97796.00;10334735;28;20091;-59
2022/05/04 00:40:42;;;;;;;21.35;11.48;;;;;;;3.83;87.02;97783.00;10334091;28;19916;-59
2022/05/04 00:45:42;;;;;;;22.92;12.98;;;;;;;3.81;87.18;97776.09;10334251;28;20496;-58
2022/05/04 00:50:41;;;;;;;;;;;;;;;3.77;86.62;97771.72;10334122;28;20500;-59
2022/05/04 00:55:40;;;;;;;21.23;12.50;;;;;;;3.73;87.23;97773.34;10333713;28;20313;-59
2022/05/04 01:00:39;;;;;;;22.95;13.30;;;;;;;3.63;87.44;97772.19;10333928;28;20061;-58
2022/05/04 01:05:38;;;;;;;25.45;14.73;;;;;;;3.53;87.95;97779.63;10333087;28;20084;-58
2022/05/04 01:10:37;;;;;;;28.13;16.13;;;;;;;3.32;89.06;97785.03;10332148;28;20487;-58
2022/05/04 01:15:36;;;;;;;32.47;16.88;;;;;;;3.15;89.12;97787.13;10333234;28;20471;-59
2022/05/04 01:20:35;;;;;;;21.60;12.73;;;;;;;3.06;88.34;97784.31;10332312;28;20049;-58
2022/05/04 01:25:34;;;;;;;25.40;14.25;;;;;;;3.05;88.04;97790.25;10332495;28;20112;-58
2022/05/04 01:30:34;;;;;;;27.38;16.58;;;;;;;3.00;87.64;97778.19;10332425;28;20077;-59
2022/05/04 01:35:33;;;;;;;24.85;14.55;;;;;;;3.07;88.26;97763.81;10332362;28;20061;-58
2022/05/04 01:40:32;;;;;;;21.75;12.43;;;;;;;3.15;88.66;97764.06;10332817;28;20396;-58
2022/05/04 01:45:31;;;;;;;19.70;11.25;;;;;;;2.93;88.80;97755.75;10331353;28;20065;-58
2022/05/04 01:50:30;;;;;;;16.25;10.40;;;;;;;3.04;89.12;97789.38;10332473;28;20029;-58
2022/05/04 01:55:32;;;;;;;25.45;14.77;;;;;;;2.95;90.05;97777.16;10331704;28;20580;-58
2022/05/04 02:00:32;;;;;;;23.75;12.85;;;;;;;2.94;89.45;97778.00;10332012;28;20056;-58
2022/05/04 02:05:31;;;;;;;25.33;14.30;;;;;;;2.94;89.33;97774.56;10333503;28;20072;-58
2022/05/04 02:10:30;;;;;;;23.15;13.32;;;;;;;2.98;88.90;97774.69;10331480;28;20504;-58
2022/05/04 02:15:29;;;;;;;22.27;13.23;;;;;;;3.11;89.09;97772.47;10331371;28;20519;-58
2022/05/04 02:20:28;;;;;;;23.25;13.27;;;;;;;3.26;89.01;97767.81;10331578;28;20053;-58
2022/05/04 02:25:27;;;;;;;22.98;13.70;;;;;;;3.41;88.81;97770.78;10331222;28;20025;-58
2022/05/04 02:30:26;;;;;;;23.63;13.98;;;;;;;3.59;88.88;97780.66;10331205;28;20069;-58
2022/05/04 02:40:42;;;;;;;21.55;12.55;;;;;;;3.75;88.94;97779.38;10331142;28;20056;-58
2022/05/04 02:45:41;;;;;;;20.73;14.30;;;;;;;3.80;88.29;97782.94;10330768;28;20105;-58
2022/05/04 02:50:40;;;;;;;22.58;14.07;;;;;;;3.81;87.96;97782.09;10331274;28;20080;-58
2022/05/04 02:55:39;;;;;;;23.10;14.07;;;;;;;3.77;88.07;97785.41;10330416;28;20021;-58
2022/05/04 03:00:38;;;;;;;23.42;13.20;;;;;;;3.72;88.07;97784.41;10337679;28;20040;-58
2022/05/04 03:05:37;;;;;;;21.85;14.18;;;;;;;3.68;88.00;97780.03;10338151;28;20497;-58
2022/05/04 03:15:55;;;;;;;28.00;16.13;;;;;;;3.45;87.54;97787.13;10335993;28;20061;-58
2022/05/04 03:20:54;;;;;;;27.98;15.98;;;;;;;3.48;87.45;97799.16;10337294;28;20060;-58
2022/05/04 03:25:53;;;;;;;25.75;15.18;;;;;;;3.53;87.55;97798.44;10336592;28;20132;-58
2022/05/04 03:30:52;;;;;;;30.00;15.15;;;;;;;3.70;87.92;97796.34;10336253;28;20073;-58
2022/05/04 03:35:51;;;;;;;27.02;16.05;;;;;;;3.85;87.71;97793.31;10336595;28;20061;-58
2022/05/04 03:40:50;;;;;;;25.67;16.13;;;;;;;4.02;87.64;97789.47;10335716;28;20072;-58
2022/05/04 03:45:49;;;;;;;25.25;15.70;;;;;;;4.23;87.85;97791.72;10335663;28;20053;-58
2022/05/04 03:50:48;;;;;;;39.67;23.48;;;;;;;4.15;88.42;97802.63;10336185;28;20108;-58
2022/05/04 03:55:52;;;;;;;25.65;16.08;;;;;;;3.78;88.01;97792.28;10335881;28;20061;-58
2022/05/04 04:00:51;;;;;;;26.48;15.10;;;;;;;3.56;88.20;97811.34;10335237;28;20064;-58
2022/05/04 04:05:50;;;;;;;24.67;14.25;;;;;;;3.44;88.36;97811.88;10335740;28;20029;-58
2022/05/04 04:10:49;;;;;;;24.08;14.27;;;;;;;3.47;89.06;97807.69;10334023;28;20038;-58
2022/05/04 04:15:51;;;;;;;25.10;14.80;;;;;;;3.72;88.71;97822.06;10334854;28;20061;-57
2022/05/04 04:26:10;;;;;;;27.15;15.82;;;;;;;4.20;88.38;97825.03;10335394;28;20069;-58
2022/05/04 04:31:09;;;;;;;21.17;14.13;;;;;;;4.39;88.13;97828.94;10321007;28;20069;-58
2022/05/04 04:36:08;;;;;;;37.20;21.80;;;;;;;4.68;88.15;97831.31;10294203;28;20073;-58
2022/05/04 04:41:07;;;;;;;20.42;13.65;;;;;;;4.93;87.66;97832.75;10291984;28;20034;-58
2022/05/04 04:46:06;;;;;;;22.58;12.85;;;;;;;5.06;86.85;97834.81;10288764;28;20037;-58
2022/05/04 04:51:05;;;;;;;35.08;26.35;;;;;;;5.05;86.24;97832.19;10296722;28;20075;-58
2022/05/04 04:56:04;;;;;;;17.75;12.35;;;;;;;5.17;85.91;97829.88;10330104;28;20030;-58
2022/05/04 05:01:03;;;;;;;;;;;;;;;5.30;85.57;97833.59;10331766;28;20057;-58
2022/05/04 05:06:02;;;;;;;17.20;12.55;;;;;;;5.41;84.73;97832.09;10333694;28;20345;-58
2022/05/04 05:11:01;;;;;;;18.73;12.90;;;;;;;5.33;84.65;97831.94;10328685;28;20042;-58
2022/05/04 05:16:09;;;;;;;21.23;12.75;;;;;;;5.30;84.79;97826.75;10330430;28;20025;-58
2022/05/04 05:21:08;;;;;;;26.05;14.43;;;;;;;5.51;84.71;97828.88;10331643;28;20056;-58
2022/05/04 05:26:07;;;;;;;22.13;14.88;;;;;;;5.63;84.54;97835.13;10333485;28;20084;-58
2022/05/04 05:31:06;;;;;;;28.08;18.98;;;;;;;5.64;85.33;97829.13;10329196;28;20050;-58
2022/05/04 05:36:06;;;;;;;28.67;17.73;;;;;;;5.94;85.22;97824.53;10346319;28;20033;-59
2022/05/04 05:41:06;;;;;;;32.75;19.27;;;;;;;6.38;84.87;97821.88;10332631;28;20480;-59
2022/05/04 05:46:05;;;;;;;22.70;16.30;;;;;;;6.70;84.11;97815.50;10332410;28;20509;-58
2022/05/04 05:51:05;;;;;;;23.38;15.00;;;;;;;7.08;82.56;97810.00;10331325;28;20603;-59
2022/05/04 05:56:04;;;;;;;20.77;15.05;;;;;;;7.34;80.24;97818.13;10331763;28;20087;-59
2022/05/04 06:01:03;;;;;;;27.25;15.82;;;;;;;7.57;79.08;97821.91;10331446;28;20064;-59
2022/05/04 06:06:02;;;;;;;24.48;15.40;;;;;;;7.78;78.54;97817.78;10330943;28;20033;-58
2022/05/04 06:11:01;;;;;;;32.22;18.05;;;;;;;8.07;77.90;97824.16;10358137;28;20522;-58
2022/05/04 06:16:00;;;;;;;20.13;13.68;;;;;;;8.25;77.31;97820.03;10365106;28;20076;-59
2022/05/04 06:21:00;;;;;;;24.00;15.73;;;;;;;8.43;76.52;97827.06;10331365;28;20069;-59
2022/05/04 06:25:59;;;;;;;20.25;13.93;;;;;;;8.60;76.25;97833.25;10330151;28;20064;-59
2022/05/04 06:36:15;;;;;;;14.88;9.65;;;;;;;9.60;74.46;97818.31;10339434;28;20077;-59
2022/05/04 06:41:14;;;;;;;10.68;6.30;;;;;;;9.84;69.32;97827.03;10339516;28;20029;-59
2022/05/04 06:46:14;;;;;;;8.95;6.38;;;;;;;9.86;69.36;97821.00;10339332;28;20052;-59
2022/05/04 06:51:13;;;;;;;11.13;6.55;;;;;;;10.18;70.77;97823.69;10339067;28;20073;-59
2022/05/04 06:56:12;;;;;;;9.77;6.53;;;;;;;10.15;70.06;97823.69;10339806;28;20072;-59
2022/05/04 07:01:11;;;;;;;7.25;4.78;;;;;;;10.04;68.44;97824.53;10339861;28;20040;-59
2022/05/04 07:06:10;;;;;;;4.28;3.53;;;;;;;10.24;68.54;97821.94;10339742;28;20069;-59
2022/05/04 07:11:10;;;;;;;8.18;5.88;;;;;;;10.57;67.85;97816.81;10354170;28;20018;-59
2022/05/04 07:16:10;;;;;;;8.10;5.22;;;;;;;10.64;65.49;97822.00;10337925;28;20061;-59
2022/05/04 07:21:09;;;;;;;7.97;5.47;;;;;;;10.75;65.77;97812.44;10338756;28;20516;-59
2022/05/04 07:26:08;;;;;;;9.05;5.45;;;;;;;11.09;66.66;97809.84;10337997;28;20552;-59
2022/05/04 07:31:07;;;;;;;8.90;6.45;;;;;;;11.44;67.07;97818.41;10337014;28;20512;-59
2022/05/04 07:36:06;;;;;;;7.53;4.88;;;;;;;11.73;64.72;97806.16;10337970;28;20033;-59
2022/05/04 07:46:22;;;;;;;6.50;5.25;;;;;;;12.19;61.64;97809.38;10337817;28;20108;-59
2022/05/04 07:51:22;;;;;;;10.85;5.00;;;;;;;12.47;61.68;97801.41;10338048;28;20452;-59
2022/05/04 07:56:21;;;;;;;8.68;5.80;;;;;;;12.76;60.96;97806.34;10337248;28;20067;-59
2022/05/04 08:06:37;;;;;;;10.70;6.45;;;;;;;13.23;57.21;97806.75;10318826;28;20154;-59
2022/05/04 08:11:36;;;;;;;9.52;5.80;;;;;;;13.42;56.97;97808.31;10317568;28;20082;-59
2022/05/04 08:16:36;;;;;;;12.65;6.75;;;;;;;13.69;56.41;97806.25;10315202;28;20140;-59
2022/05/04 08:21:38;;;;;;;11.95;7.18;;;;;;;14.04;54.10;97815.38;10308652;28;20100;-59
2022/05/04 08:26:37;;;;;;;8.80;4.60;;;;;;;14.35;53.45;97803.59;10321362;28;20073;-59
2022/05/04 08:31:36;;;;;;;8.68;4.68;;;;;;;14.64;51.38;97786.63;10340842;28;20097;-59
2022/05/04 08:36:38;;;;;;;7.10;3.58;;;;;;;14.90;48.38;97775.75;10295563;28;20069;-59
2022/05/04 08:41:40;;;;;;;7.25;3.30;;;;;;;15.16;41.64;97777.00;10306666;28;20065;-59
2022/05/04 08:46:41;;;;;;;5.85;3.38;;;;;;;15.42;42.04;97776.50;10313738;28;20084;-59
2022/05/04 08:51:41;;;;;;;5.22;2.70;;;;;;;15.67;40.06;97756.78;10301125;28;20484;-59
2022/05/04 08:56:40;;;;;;;6.03;3.42;;;;;;;16.14;41.29;97774.09;10309992;28;20068;-60
2022/05/04 09:01:39;;;;;;;;;;;;;;;16.28;39.75;97772.03;10328957;28;20049;-57
2022/05/04 09:06:43;;;;;;;7.65;4.40;;;;;;;16.29;39.07;97776.38;10308032;28;20341;-57
2022/05/04 09:11:46;;;;;;;5.55;3.28;;;;;;;16.38;38.94;97776.16;10364482;28;20065;-59
2022/05/04 09:16:46;;;;;;;4.18;2.53;;;;;;;16.35;39.38;97743.94;10374473;28;20064;-57
2022/05/04 09:21:48;;;;;;;4.68;2.88;;;;;;;16.64;40.21;97764.19;10364424;28;20049;-57
2022/05/04 09:26:47;;;;;;;2.80;2.55;;;;;;;16.82;41.11;97769.00;10331715;28;20071;-58
2022/05/04 09:31:47;;;;;;;3.60;2.83;;;;;;;16.83;40.32;97768.06;10331768;28;20072;-58
2022/05/04 09:47:27;;;;;;;4.57;2.42;;;;;;;17.41;39.76;97751.69;10329367;28;20064;-58
2022/05/04 09:52:28;;;;;;;4.32;2.70;;;;;;;17.72;40.49;97757.72;10330684;28;20164;-58
2022/05/04 09:57:27;;;;;;;3.85;2.83;;;;;;;17.84;39.66;97742.56;10325770;28;20060;-58
2022/05/04 10:02:26;;;;;;;6.85;3.53;;;;;;;18.00;39.09;97743.81;10324037;28;20032;-58
2022/05/04 10:07:27;;;;;;;5.72;3.28;;;;;;;18.10;38.55;97733.88;10322302;28;20468;-58
2022/05/04 10:12:26;;;;;;;2.88;2.42;;;;;;;18.36;37.66;97730.41;10320343;28;20064;-59
2022/05/04 10:17:28;;;;;;;4.20;2.60;;;;;;;18.54;37.94;97715.81;10323604;28;20053;-58
2022/05/04 10:22:36;;;;;;;4.28;2.90;;;;;;;18.91;36.56;97720.69;10341557;28;20068;-58
2022/05/04 10:27:43;;;;;;;3.72;2.88;;;;;;;19.03;35.36;97709.72;10329052;28;20072;-58
2022/05/04 10:32:43;;;;;;;5.10;3.00;;;;;;;19.13;36.54;97712.03;10317727;28;20085;-58
2022/05/04 10:38:12;;;;;;;3.53;2.70;;;;;;;18.80;36.70;97704.44;10323879;28;20065;-58
2022/05/04 10:43:19;;;;;;;4.20;2.80;;;;;;;18.93;35.48;97697.84;10300694;28;20469;-58
2022/05/04 10:48:17;;;;;;;5.15;2.90;;;;;;;19.26;35.63;97692.25;10298041;28;20296;-58
2022/05/04 10:53:25;;;;;;;8.80;3.72;;;;;;;19.96;38.22;97687.88;10319943;28;20033;-58
2022/05/04 10:58:38;;;;;;;6.38;2.85;;;;;;;20.59;34.62;97688.81;10334797;28;20112;-58
2022/05/04 11:03:48;;;;;;;5.43;2.80;;;;;;;20.36;34.16;97681.84;10333405;28;20065;-59
2022/05/04 11:08:48;;;;;;;4.72;3.05;;;;;;;20.11;34.47;97686.41;10344309;28;20472;-58
2022/05/04 11:13:48;;;;;;;5.93;2.90;;;;;;;19.85;33.26;97677.75;10373431;28;20937;-58
2022/05/04 11:18:47;;;;;;;4.15;2.70;;;;;;;19.82;33.13;97665.56;10376815;28;20068;-58
2022/05/04 11:23:51;;;;;;;6.05;2.65;;;;;;;20.26;32.69;97648.91;10378738;28;20079;-58
2022/05/04 11:28:52;;;;;;;3.05;2.70;;;;;;;20.83;33.31;97659.66;10377865;28;20080;-59
2022/05/04 11:33:51;;;;;;;3.65;2.60;;;;;;;20.81;32.03;97659.72;10378195;28;20076;-58
2022/05/04 11:38:50;;;;;;;3.88;3.03;;;;;;;20.63;31.80;97623.59;10377430;28;20056;-58
2022/05/04 11:43:54;;;;;;;2.88;2.40;;;;;;;20.41;31.40;97636.88;10370229;28;20065;-58
2022/05/04 11:48:56;;;;;;;4.18;2.55;;;;;;;20.31;31.43;97640.78;10335777;28;20072;-59
2022/05/04 11:53:55;;;;;;;3.45;2.90;;;;;;;20.21;31.76;97638.53;10335479;28;20073;-59
2022/05/04 11:58:54;;;;;;;4.07;3.10;;;;;;;20.36;31.15;97636.19;10336450;28;20039;-58
2022/05/04 12:03:54;;;;;;;4.18;2.72;;;;;;;20.79;32.00;97613.25;10335552;28;20077;-59
2022/05/04 12:08:54;;;;;;;3.78;2.65;;;;;;;21.41;31.92;97611.34;10335134;28;20496;-58
2022/05/04 12:13:53;;;;;;;4.80;2.50;;;;;;;21.50;29.77;97619.69;10335809;28;20072;-58
2022/05/04 12:18:52;;;;;;;3.38;2.97;;;;;;;21.47;30.74;97614.53;10334751;28;20060;-59
2022/05/04 12:23:54;;;;;;;3.28;2.67;;;;;;;21.85;30.69;97610.97;10334313;28;20488;-58
2022/05/04 12:34:13;;;;;;;5.30;3.35;;;;;;;21.74;33.57;97614.16;10334735;28;20060;-57
2022/05/04 12:39:12;;;;;;;15.25;12.27;;;;;;;21.84;33.12;97612.78;10335705;28;20057;-57
2022/05/04 12:44:14;;;;;;;20.67;16.13;;;;;;;21.73;31.86;97604.50;10335500;28;20061;-58
2022/05/04 12:49:13;;;;;;;29.83;27.10;;;;;;;21.65;32.05;97617.25;10299389;28;20138;-58
2022/05/04 12:54:15;;;;;;;23.48;21.17;;;;;;;21.47;32.35;97614.53;10290745;28;20036;-58
2022/05/04 12:59:15;;;;;;;17.60;15.57;;;;;;;21.37;32.53;97612.41;10293535;28;20065;-58
2022/05/04 13:04:15;;;;;;;9.68;4.45;;;;;;;21.31;33.59;97632.00;10310759;28;20075;-58
2022/05/04 13:09:14;;;;;;;4.15;3.40;;;;;;;20.60;37.75;97619.31;10313505;28;20072;-58
2022/05/04 13:14:13;;;;;;;32.97;29.30;;;;;;;20.78;38.40;97612.41;10311549;28;20507;-58
2022/05/04 13:19:12;;;;;;;15.02;12.05;;;;;;;20.98;37.58;97608.84;10313071;28;20504;-57
2022/05/04 13:24:11;;;;;;;9.60;5.80;;;;;;;21.17;36.95;97618.56;10308805;28;20018;-57
2022/05/04 13:29:10;;;;;;;33.67;30.58;;;;;;;21.01;35.97;97611.38;10293714;28;20041;-59
2022/05/04 13:34:10;;;;;;;5.35;3.47;;;;;;;20.99;37.30;97626.41;10294907;28;20069;-59
2022/05/04 13:39:09;;;;;;;10.43;8.35;;;;;;;20.83;39.22;97618.31;10293627;28;20065;-59
2022/05/04 13:44:08;;;;;;;9.52;7.32;;;;;;;20.58;42.19;97618.53;10292676;28;20040;-59
2022/05/04 13:49:06;;;;;;;11.57;10.38;;;;;;;20.60;42.86;97618.47;10293965;28;20049;-59
2022/05/04 13:54:05;;;;;;;6.05;4.63;;;;;;;20.97;44.81;97622.97;10313461;28;20044;-59
2022/05/04 13:59:04;;;;;;;6.28;4.30;;;;;;;21.25;44.63;97622.59;10332573;28;20057;-56
2022/05/04 14:04:03;;;;;;;4.53;3.47;;;;;;;21.49;44.05;97623.22;10332572;28;20045;-56
2022/05/04 14:09:03;;;;;;;11.38;4.00;;;;;;;21.61;41.89;97618.31;10339287;28;20524;-57
2022/05/04 14:19:20;;;;;;;11.43;5.30;;;;;;;20.17;46.12;97644.84;10368765;28;20060;-59
2022/05/04 14:24:19;;;;;;;14.05;11.90;;;;;;;19.01;54.75;97653.69;10371691;28;20060;-59
2022/05/04 14:29:19;;;;;;;14.35;11.15;;;;;;;18.49;57.19;97650.28;10371980;28;20136;-59
2022/05/04 14:34:18;;;;;;;7.65;5.57;;;;;;;18.60;61.56;97647.28;10372097;28;20107;-58
2022/05/04 14:39:17;;;;;;;9.23;6.50;;;;;;;18.71;61.96;97665.31;10370584;28;20025;-59
2022/05/04 14:44:16;;;;;;;7.13;5.18;;;;;;;18.69;61.99;97677.66;10371780;28;20041;-59
2022/05/04 14:49:16;;;;;;;6.00;5.05;;;;;;;18.58;63.26;97680.63;10372073;28;20136;-59
2022/05/04 14:54:14;;;;;;;15.02;9.23;;;;;;;18.42;61.20;97679.44;10377708;28;20060;-59
2022/05/04 14:59:14;;;;;;;8.05;5.38;;;;;;;18.28;62.22;97662.38;10378573;28;20104;-59
2022/05/04 15:09:30;;;;;;;9.57;5.43;;;;;;;18.02;63.69;97655.34;10378524;28;20519;-59
2022/05/04 15:14:32;;;;;;;10.45;7.22;;;;;;;17.75;65.37;97662.28;10348342;28;20520;-59
2022/05/04 15:19:31;;;;;;;7.93;5.72;;;;;;;17.47;65.86;97657.03;10337070;28;20052;-59
2022/05/04 15:24:30;;;;;;;7.30;5.25;;;;;;;17.27;66.04;97662.91;10337818;28;20044;-59
2022/05/04 15:29:29;;;;;;;7.78;5.57;;;;;;;17.08;67.15;97665.19;10335308;28;20134;-59
2022/05/04 15:34:28;;;;;;;11.00;6.03;;;;;;;16.78;68.55;97657.25;10336863;28;20064;-59
2022/05/04 15:39:27;;;;;;;;;;;;;;;16.52;68.49;97668.44;10337343;28;20454;-59
2022/05/04 15:44:26;;;;;;;9.70;5.93;;;;;;;16.33;68.49;97670.66;10336239;28;19967;-59
2022/05/04 15:49:25;;;;;;;12.75;6.38;;;;;;;16.06;68.84;97686.13;10335561;28;20906;-58
2022/05/04 15:54:24;;;;;;;;;;;;;;;15.85;67.80;97712.81;10336804;28;20699;-59
2022/05/04 15:59:23;;;;;;;9.75;6.35;;;;;;;15.62;69.52;97692.38;10336291;28;19913;-58
2022/05/04 16:04:21;;;;;;;;;;;;;;;15.51;72.41;97699.63;10335168;28;20029;-58
2022/05/04 16:09:20;;;;;;;20.33;13.00;;;;;;;15.32;73.88;97688.66;10335071;28;19917;-58
2022/05/04 16:14:21;;;;;;;25.00;16.63;;;;;;;15.01;74.97;97699.75;10333877;28;20025;-59
2022/05/04 16:24:38;;;;;;;14.93;11.00;;;;;;;14.66;76.55;97716.03;10333503;28;20544;-58
2022/05/04 16:29:37;;;;;;;12.82;10.02;;;;;;;14.50;77.47;97721.56;10333890;28;20088;-59
2022/05/04 16:34:36;;;;;;;;;;;;;;;14.39;77.56;97737.38;10331169;28;20489;-58
2022/05/04 16:39:34;;;;;;;15.73;10.50;;;;;;;14.27;77.79;97748.03;10333303;28;20033;-59
2022/05/04 16:44:34;;;;;;;21.88;10.40;;;;;;;14.05;78.59;97772.72;10332647;28;20044;-58
2022/05/04 16:49:32;;;;;;;;;;;;;;;13.48;82.40;97854.28;10334610;28;20535;-58
2022/05/04 16:54:31;;;;;;;18.55;10.95;;;;;;;12.94;81.44;97860.03;10329690;28;20423;-59
2022/05/04 16:59:30;;;;;;;14.70;9.35;;;;;;;12.83;81.94;97861.84;10332732;28;20394;-59
2022/05/04 17:04:29;;;;;;;23.50;13.77;;;;;;;12.84;82.12;97894.84;10331910;28;20519;-58
2022/05/04 17:09:28;;;;;;;34.90;21.73;;;;;;;12.90;83.21;97918.22;10347089;28;20551;-58
2022/05/04 17:14:27;;;;;;;11.25;5.88;;;;;;;12.48;81.74;97938.47;10373274;28;20025;-58
2022/05/04 17:19:26;;;;;;;37.85;18.77;;;;;;;11.93;81.62;97942.16;10372759;28;20103;-58
2022/05/04 17:24:25;;;;;;;54.88;30.23;;;;;;;11.68;83.57;97956.94;10373783;28;20147;-58
2022/05/04 17:29:25;;;;;;;144.55;86.00;;;;;;;11.56;85.19;97973.44;10372722;28;20047;-58
2022/05/04 17:39:42;;;;;;;29.13;19.60;;;;;;;11.53;87.08;97988.19;10372696;28;20048;-59
2022/05/04 17:44:41;;;;;;;28.75;18.65;;;;;;;11.48;86.92;97992.50;10359971;28;20037;-58
2022/05/04 17:49:40;;;;;;;17.13;12.50;;;;;;;11.47;87.39;98009.81;10330857;28;20076;-59
2022/05/04 17:54:39;;;;;;;17.25;10.98;;;;;;;11.41;87.99;98009.84;10331861;28;20488;-59
2022/05/04 17:59:38;;;;;;;16.25;10.63;;;;;;;11.37;88.20;98018.50;10332186;28;20547;-58
2022/05/04 18:04:37;;;;;;;17.77;11.25;;;;;;;11.37;88.09;98016.75;10331712;28;20431;-59
2022/05/04 18:09:36;;;;;;;19.63;11.30;;;;;;;11.39;88.78;98029.78;10331026;28;20032;-59
2022/05/04 18:14:35;;;;;;;25.92;18.95;;;;;;;11.02;89.40;97970.84;10332205;28;20069;-58
2022/05/04 18:19:34;;;;;;;27.20;19.02;;;;;;;11.48;89.33;98034.97;10329417;28;20025;-58
2022/05/04 18:24:33;;;;;;;;;;;;;;;11.49;90.22;98038.44;10331241;28;20069;-58
2022/05/04 18:29:32;;;;;;;16.00;10.93;;;;;;;11.51;90.92;98026.31;10338285;28;19917;-59
2022/05/04 18:34:31;;;;;;;16.33;10.45;;;;;;;11.48;91.12;98021.09;10338996;28;20118;-58
2022/05/04 18:39:30;;;;;;;15.35;10.18;;;;;;;11.52;91.61;98028.88;10337598;28;20037;-58
2022/05/04 18:44:29;;;;;;;14.35;9.43;;;;;;;11.52;91.32;98023.69;10339173;28;20053;-58
2022/05/04 18:49:28;;;;;;;13.40;10.00;;;;;;;11.45;91.93;98015.03;10338196;28;20036;-59
2022/05/04 18:54:27;;;;;;;14.80;10.57;;;;;;;11.38;91.75;98015.03;10335750;28;20037;-58
2022/05/04 18:59:26;;;;;;;15.95;11.13;;;;;;;11.24;91.55;98010.72;10338664;28;20074;-58
2022/05/04 19:04:26;;;;;;;;;;;;;;;11.17;91.49;98003.75;10338290;28;20076;-58
2022/05/04 19:09:25;;;;;;;13.97;10.57;;;;;;;11.03;91.33;97995.97;10350590;28;19947;-58
2022/05/04 19:14:24;;;;;;;14.43;10.02;;;;;;;10.87;91.10;97995.91;10377231;28;20037;-58
2022/05/04 19:19:23;;;;;;;17.15;10.60;;;;;;;10.69;91.33;97996.75;10338930;28;20057;-58
2022/05/04 19:24:22;;;;;;;20.90;12.55;;;;;;;10.51;92.03;97998.41;10358060;28;20031;-58
2022/05/04 19:29:21;;;;;;;18.33;11.27;;;;;;;10.43;91.77;97994.94;10315768;28;20072;-58
2022/05/04 19:34:20;;;;;;;15.23;9.85;;;;;;;10.35;92.06;97996.63;10298602;28;20536;-58
2022/05/04 19:39:19;;;;;;;;;;;;;;;10.28;92.13;98002.66;10314648;28;20489;-57
2022/05/04 19:44:18;;;;;;;20.25;14.35;;;;;;;10.17;92.16;97993.13;10310987;28;20373;-57
2022/05/04 19:49:18;;;;;;;23.67;15.55;;;;;;;10.12;91.56;97984.44;10300905;28;20038;-58
2022/05/04 19:54:17;;;;;;;;;;;;;;;10.06;91.61;97984.41;10324570;28;20065;-58
2022/05/04 19:59:15;;;;;;;26.58;16.70;;;;;;;10.00;92.72;97994.75;10300661;28;19956;-58
2022/05/04 20:04:14;;;;;;;31.85;16.05;;;;;;;9.95;92.68;97997.31;10295046;28;20028;-58
2022/05/04 20:09:13;;;;;;;41.88;21.73;;;;;;;9.86;92.56;97983.44;10294623;28;20577;-58
2022/05/04 20:14:12;;;;;;;54.50;25.48;;;;;;;9.90;92.12;97987.78;10294548;28;20405;-58
2022/05/04 20:19:13;;;;;;;34.83;18.02;;;;;;;9.83;92.72;97994.66;10294517;28;20038;-58
2022/05/04 20:24:13;;;;;;;27.40;13.88;;;;;;;9.76;92.53;98000.66;10294416;28;20136;-58
2022/05/04 20:29:12;;;;;;;26.00;15.70;;;;;;;9.65;92.44;98000.63;10295049;28;20089;-58
2022/05/04 20:34:11;;;;;;;23.35;14.07;;;;;;;9.55;92.52;97999.66;10293797;28;20085;-57
2022/05/04 20:39:10;;;;;;;25.00;14.68;;;;;;;9.44;92.79;98000.44;10293848;28;20129;-58
2022/05/04 20:44:11;;;;;;;19.83;12.50;;;;;;;9.31;93.34;98004.66;10294068;28;20076;-58
2022/05/04 20:49:10;;;;;;;28.85;15.00;;;;;;;9.30;93.01;98011.59;10292127;28;20433;-57
2022/05/04 20:54:09;;;;;;;21.20;11.80;;;;;;;9.23;92.82;97998.50;10292983;28;20085;-58
2022/05/04 20:59:12;;;;;;;20.67;13.13;;;;;;;9.18;92.70;98008.84;10293170;28;20072;-57
2022/05/04 21:04:11;;;;;;;27.15;15.93;;;;;;;9.00;93.00;98011.28;10292984;28;20092;-58
2022/05/04 21:09:10;;;;;;;21.88;13.82;;;;;;;8.91;93.53;98018.09;10292719;28;20065;-57
2022/05/04 21:14:10;;;;;;;20.98;11.70;;;;;;;8.84;93.18;98021.47;10292603;28;20480;-58
2022/05/04 21:19:10;;;;;;;15.63;10.32;;;;;;;8.76;93.24;98033.44;10292578;28;20065;-58
2022/05/04 21:24:08;;;;;;;17.00;10.07;;;;;;;8.70;92.69;98030.81;10292728;28;20070;-57
2022/05/04 21:29:07;;;;;;;15.60;10.25;;;;;;;8.59;92.74;98029.81;10291695;28;20056;-58
2022/05/04 21:34:06;;;;;;;18.50;10.20;;;;;;;8.51;92.89;98040.09;10293069;28;20460;-58
2022/05/04 21:39:05;;;;;;;22.88;12.13;;;;;;;8.41;92.79;98031.34;10291530;28;20385;-57
2022/05/04 21:44:04;;;;;;;24.52;14.60;;;;;;;8.35;92.66;98040.75;10292275;28;20328;-58
2022/05/04 21:49:03;;;;;;;23.73;14.07;;;;;;;8.28;93.11;98034.63;10292620;28;20132;-58
2022/05/04 21:54:02;;;;;;;22.10;13.23;;;;;;;8.24;93.14;98041.47;10291180;28;20025;-57
2022/05/04 21:59:01;;;;;;;27.38;15.77;;;;;;;8.20;92.66;98037.13;10291166;28;20489;-58
2022/05/04 22:04:00;;;;;;;23.55;14.73;;;;;;;8.13;92.88;98042.19;10295970;28;20297;-58
2022/05/04 22:08:59;;;;;;;24.92;15.48;;;;;;;8.07;92.67;98038.66;10299702;28;20477;-58
2022/05/04 22:13:59;;;;;;;25.50;15.30;;;;;;;8.04;93.03;98042.94;10298233;28;20477;-58
2022/05/04 22:18:58;;;;;;;;;;;;;;;7.98;93.74;98035.97;10299599;28;20462;-58
2022/05/04 22:23:57;;;;;;;26.40;14.98;;;;;;;7.96;93.80;98052.28;10295367;28;20360;-57
2022/05/04 22:28:56;;;;;;;22.80;12.98;;;;;;;7.92;93.27;98041.06;10294306;28;20568;-58
2022/05/04 22:33:55;;;;;;;17.48;10.57;;;;;;;7.90;93.32;98037.59;10294938;28;20046;-58
2022/05/04 22:38:55;;;;;;;18.58;10.57;;;;;;;7.86;93.46;98036.66;10298833;28;20500;-58
2022/05/04 22:43:53;;;;;;;19.05;10.90;;;;;;;7.82;94.22;98041.75;10296965;28;20073;-58
2022/05/04 22:48:52;;;;;;;20.80;12.48;;;;;;;7.74;94.37;98043.38;10298456;28;20116;-58
2022/05/04 22:53:51;;;;;;;28.00;17.25;;;;;;;7.72;93.90;98042.47;10297589;28;20084;-58
2022/05/04 22:58:50;;;;;;;29.23;15.30;;;;;;;7.67;94.33;98045.00;10297596;28;20065;-57
2022/05/04 23:03:49;;;;;;;32.88;18.05;;;;;;;7.62;94.51;98046.63;10297959;28;20030;-57
2022/05/04 23:08:48;;;;;;;32.28;17.42;;;;;;;7.51;94.37;98054.22;10297564;28;20512;-57
2022/05/04 23:13:47;;;;;;;30.13;18.30;;;;;;;7.49;94.09;98052.44;10296795;28;20033;-58
2022/05/04 23:18:46;;;;;;;30.70;18.10;;;;;;;7.49;94.11;98040.41;10297399;28;20533;-58
2022/05/04 23:23:45;;;;;;;32.58;18.77;;;;;;;7.46;94.34;98042.94;10296995;28;20465;-58
2022/05/04 23:28:45;;;;;;;31.38;18.98;;;;;;;7.42;94.46;98033.41;10296266;28;20069;-58
2022/05/04 23:33:44;;;;;;;35.80;17.75;;;;;;;7.20;94.75;98038.19;10296169;28;20080;-57
2022/05/04 23:38:43;;;;;;;32.88;16.73;;;;;;;7.03;94.63;98029.31;10296487;28;20037;-57
2022/05/04 23:43:42;;;;;;;32.65;16.90;;;;;;;7.01;94.75;98030.97;10295748;28;20069;-57
2022/05/04 23:48:41;;;;;;;25.83;15.30;;;;;;;6.93;94.79;98042.88;10296222;28;20065;-57
2022/05/04 23:53:40;;;;;;;26.33;15.55;;;;;;;6.88;94.69;98032.47;10295658;28;20129;-58
2022/05/04 23:58:39;;;;;;;26.02;14.60;;;;;;;6.80;95.03;98034.03;10296213;28;20062;-57
